Time;durP1;ratioP1;P1;durP2;ratioP2;P2;SDS_P1;SDS_P2;PMS_P1;PMS_P2;Temp;Humidity;BMP_temperature;BMP_pressure;BME280_temperature;BME280_humidity;BME280_pressure;Samples;Min_cycle;Max_cycle;Signal;HPM_P1;HPM_P2
2023/04/15 00:00:39;;;;;;;0.00;0.00;;;;;;;;;;1731323;28;20239;-74
2023/04/15 00:01:33;;;;;;;0.00;0.00;;;;;;;;;;1731543;28;20275;-74
2023/04/15 00:02:24;;;;;;;0.00;0.00;;;;;;;;;;1728725;28;20267;-74
2023/04/15 00:03:16;;;;;;;0.00;0.00;;;;;;;;;;1731061;28;20204;-74
2023/04/15 00:04:08;;;;;;;0.03;0.03;;;;;;;;;;1735971;28;20212;-74
2023/04/15 00:05:00;;;;;;;0.00;0.00;;;;;;;;;;1732063;28;20215;-74
2023/04/15 00:05:52;;;;;;;0.00;0.00;;;;;;;;;;1734729;28;20284;-74
2023/04/15 00:06:50;;;;;;;0.00;0.00;;;;;;;;;;1730528;28;20612;-74
2023/04/15 00:07:41;;;;;;;0.00;0.00;;;;;;;;;;1732197;28;20212;-74
2023/04/15 00:08:33;;;;;;;0.00;0.00;;;;;;;;;;1728859;28;20220;-74
2023/04/15 00:09:24;;;;;;;0.00;0.00;;;;;;;;;;1728124;28;20212;-74
2023/04/15 00:10:16;;;;;;;0.00;0.00;;;;;;;;;;1729109;28;20299;-75
2023/04/15 00:11:07;;;;;;;0.00;0.00;;;;;;;;;;1729793;28;20604;-74
2023/04/15 00:11:59;;;;;;;0.00;0.00;;;;;;;;;;1726012;28;20263;-74
2023/04/15 00:12:51;;;;;;;0.00;0.00;;;;;;;;;;1725084;28;20257;-74
2023/04/15 00:13:43;;;;;;;0.00;0.00;;;;;;;;;;1731344;28;20693;-74
2023/04/15 00:14:34;;;;;;;0.00;0.00;;;;;;;;;;1732693;28;20219;-74
2023/04/15 00:15:26;;;;;;;0.00;0.00;;;;;;;;;;1729365;28;20635;-74
2023/04/15 00:16:17;;;;;;;0.00;0.00;;;;;;;;;;1734059;28;20215;-74
2023/04/15 00:17:09;;;;;;;0.00;0.00;;;;;;;;;;1728111;28;20208;-74
2023/04/15 00:18:02;;;;;;;0.00;0.00;;;;;;;;;;1731366;28;20215;-74
2023/04/15 00:18:54;;;;;;;0.00;0.00;;;;;;;;;;1731327;28;20319;-74
2023/04/15 00:19:44;;;;;;;0.00;0.00;;;;;;;;;;1731031;28;20648;-74
2023/04/15 00:20:37;;;;;;;0.00;0.00;;;;;;;;;;1730525;28;20584;-74
2023/04/15 00:21:30;;;;;;;0.00;0.00;;;;;;;;;;1728744;28;20220;-74
2023/04/15 00:22:21;;;;;;;0.00;0.00;;;;;;;;;;1727330;28;20902;-74
2023/04/15 00:23:12;;;;;;;0.00;0.00;;;;;;;;;;1729630;28;20297;-74
2023/04/15 00:24:05;;;;;;;0.00;0.00;;;;;;;;;;1731534;28;20273;-74
2023/04/15 00:24:56;;;;;;;0.00;0.00;;;;;;;;;;1730565;28;20204;-74
2023/04/15 00:25:48;;;;;;;0.00;0.00;;;;;;;;;;1729325;28;20239;-74
2023/04/15 00:26:39;;;;;;;0.00;0.00;;;;;;;;;;1732692;28;20200;-74
2023/04/15 00:27:32;;;;;;;0.00;0.00;;;;;;;;;;1731646;28;20676;-74
2023/04/15 00:28:23;;;;;;;0.00;0.00;;;;;;;;;;1728891;28;20740;-74
2023/04/15 00:29:15;;;;;;;0.00;0.00;;;;;;;;;;1724282;28;20561;-74
2023/04/15 00:30:06;;;;;;;0.00;0.00;;;;;;;;;;1729630;28;20204;-74
2023/04/15 00:30:58;;;;;;;0.00;0.00;;;;;;;;;;1727601;28;20224;-74
2023/04/15 00:31:49;;;;;;;0.00;0.00;;;;;;;;;;1728314;28;20339;-74
2023/04/15 00:32:42;;;;;;;0.00;0.00;;;;;;;;;;1732483;28;20222;-74
2023/04/15 00:33:33;;;;;;;0.00;0.00;;;;;;;;;;1731311;28;20223;-74
2023/04/15 00:34:25;;;;;;;0.00;0.00;;;;;;;;;;1731507;28;20294;-74
2023/04/15 00:35:16;;;;;;;0.00;0.00;;;;;;;;;;1729682;28;20627;-74
2023/04/15 00:36:08;;;;;;;0.00;0.00;;;;;;;;;;1730491;28;20232;-74
2023/04/15 00:37:01;;;;;;;0.00;0.00;;;;;;;;;;1725758;28;20336;-74
2023/04/15 00:37:53;;;;;;;0.00;0.00;;;;;;;;;;1729060;28;20219;-74
2023/04/15 00:38:44;;;;;;;0.00;0.00;;;;;;;;;;1729751;28;20925;-74
2023/04/15 00:39:36;;;;;;;0.00;0.00;;;;;;;;;;1730748;28;20604;-74
2023/04/15 00:40:27;;;;;;;0.00;0.00;;;;;;;;;;1726124;28;20212;-75
2023/04/15 00:41:19;;;;;;;0.00;0.00;;;;;;;;;;1730617;28;20299;-74
2023/04/15 00:42:10;;;;;;;0.00;0.00;;;;;;;;;;1731717;28;20360;-74
2023/04/15 00:43:03;;;;;;;0.00;0.00;;;;;;;;;;1731213;28;20226;-74
2023/04/15 00:43:54;;;;;;;0.00;0.00;;;;;;;;;;1730500;28;20292;-75
2023/04/15 00:44:46;;;;;;;0.00;0.00;;;;;;;;;;1730868;28;20226;-74
2023/04/15 00:45:37;;;;;;;0.10;0.10;;;;;;;;;;1731616;28;20289;-74
2023/04/15 00:46:29;;;;;;;0.00;0.00;;;;;;;;;;1732477;28;20230;-74
2023/04/15 00:47:21;;;;;;;0.00;0.00;;;;;;;;;;1738877;28;20904;-74
2023/04/15 00:48:14;;;;;;;0.00;0.00;;;;;;;;;;1733040;28;20208;-74
2023/04/15 00:49:05;;;;;;;0.00;0.00;;;;;;;;;;1737470;28;20250;-74
2023/04/15 00:49:58;;;;;;;0.00;0.00;;;;;;;;;;1734629;28;20203;-74
2023/04/15 00:50:49;;;;;;;0.10;0.10;;;;;;;;;;1730173;28;20247;-75
2023/04/15 00:51:41;;;;;;;0.00;0.00;;;;;;;;;;1733471;28;20216;-74
2023/04/15 00:52:33;;;;;;;0.00;0.00;;;;;;;;;;1732510;28;20212;-75
2023/04/15 00:53:25;;;;;;;0.00;0.00;;;;;;;;;;1731892;28;20215;-74
2023/04/15 00:54:16;;;;;;;0.00;0.00;;;;;;;;;;1732338;28;20207;-74
2023/04/15 00:55:10;;;;;;;0.00;0.00;;;;;;;;;;1734725;28;20245;-74
2023/04/15 00:56:01;;;;;;;0.00;0.00;;;;;;;;;;1730412;28;20236;-75
2023/04/15 00:56:53;;;;;;;0.00;0.00;;;;;;;;;;1735036;28;20286;-74
2023/04/15 00:57:44;;;;;;;0.00;0.00;;;;;;;;;;1731786;28;20204;-74
2023/04/15 00:58:36;;;;;;;0.00;0.00;;;;;;;;;;1733113;28;20660;-74
2023/04/15 00:59:27;;;;;;;0.00;0.00;;;;;;;;;;1738327;28;20404;-74
2023/04/15 01:00:19;;;;;;;0.00;0.00;;;;;;;;;;1734548;28;20590;-74
2023/04/15 01:01:10;;;;;;;0.00;0.00;;;;;;;;;;1732419;28;20283;-74
2023/04/15 01:02:02;;;;;;;0.00;0.00;;;;;;;;;;1733532;28;20212;-75
2023/04/15 01:02:53;;;;;;;0.00;0.00;;;;;;;;;;1733751;28;20985;-75
2023/04/15 01:03:45;;;;;;;0.00;0.00;;;;;;;;;;1729714;28;20945;-74
2023/04/15 01:04:36;;;;;;;0.00;0.00;;;;;;;;;;1731177;28;20281;-74
2023/04/15 01:05:29;;;;;;;0.10;0.10;;;;;;;;;;1732017;28;20266;-75
2023/04/15 01:06:20;;;;;;;0.00;0.00;;;;;;;;;;1733070;28;20893;-74
2023/04/15 01:07:12;;;;;;;0.00;0.00;;;;;;;;;;1732656;28;20693;-74
2023/04/15 01:08:04;;;;;;;0.00;0.00;;;;;;;;;;1732713;28;20208;-74
2023/04/15 01:08:57;;;;;;;0.08;0.08;;;;;;;;;;1737851;28;20211;-75
2023/04/15 01:09:48;;;;;;;0.00;0.00;;;;;;;;;;1731527;28;20919;-74
2023/04/15 01:10:40;;;;;;;0.03;0.03;;;;;;;;;;1730982;28;20234;-74
2023/04/15 01:11:33;;;;;;;0.00;0.00;;;;;;;;;;1733528;28;20285;-74
2023/04/15 01:12:25;;;;;;;0.00;0.00;;;;;;;;;;1731092;28;20298;-74
2023/04/15 01:13:16;;;;;;;0.00;0.00;;;;;;;;;;1733283;28;20584;-74
2023/04/15 01:14:09;;;;;;;0.00;0.00;;;;;;;;;;1736891;28;20254;-74
2023/04/15 01:15:03;;;;;;;0.10;0.10;;;;;;;;;;1735505;28;20208;-74
2023/04/15 01:15:57;;;;;;;0.05;0.05;;;;;;;;;;1730159;28;20302;-74
2023/04/15 01:16:48;;;;;;;0.00;0.00;;;;;;;;;;1729391;28;20689;-74
2023/04/15 01:17:40;;;;;;;0.00;0.00;;;;;;;;;;1732663;28;20208;-74
2023/04/15 01:18:31;;;;;;;0.00;0.00;;;;;;;;;;1733732;28;20219;-74
2023/04/15 01:19:23;;;;;;;0.00;0.00;;;;;;;;;;1738684;28;20230;-74
2023/04/15 01:20:15;;;;;;;0.00;0.00;;;;;;;;;;1734115;28;20270;-74
2023/04/15 01:21:07;;;;;;;0.00;0.00;;;;;;;;;;1736152;28;20342;-74
2023/04/15 01:21:58;;;;;;;0.00;0.00;;;;;;;;;;1732730;28;20239;-74
2023/04/15 01:22:51;;;;;;;0.00;0.00;;;;;;;;;;1733860;28;20208;-74
2023/04/15 01:23:44;;;;;;;0.00;0.00;;;;;;;;;;1733712;28;20273;-74
2023/04/15 01:24:36;;;;;;;0.00;0.00;;;;;;;;;;1735434;28;20633;-74
2023/04/15 01:25:31;;;;;;;0.00;0.00;;;;;;;;;;1731910;28;20877;-74
2023/04/15 01:26:23;;;;;;;0.00;0.00;;;;;;;;;;1735317;28;20291;-75
2023/04/15 01:27:14;;;;;;;0.00;0.00;;;;;;;;;;1733843;28;20262;-75
2023/04/15 01:28:05;;;;;;;0.00;0.00;;;;;;;;;;1736035;28;20227;-74
2023/04/15 01:28:57;;;;;;;0.00;0.00;;;;;;;;;;1737255;28;20214;-74
2023/04/15 01:29:48;;;;;;;0.00;0.00;;;;;;;;;;1729255;28;20246;-74
2023/04/15 01:30:40;;;;;;;0.05;0.05;;;;;;;;;;1726524;28;20236;-75
2023/04/15 01:31:32;;;;;;;0.00;0.00;;;;;;;;;;1732884;28;20231;-74
2023/04/15 01:32:24;;;;;;;0.00;0.00;;;;;;;;;;1733104;28;20594;-74
2023/04/15 01:33:15;;;;;;;0.00;0.00;;;;;;;;;;1733985;28;20598;-74
2023/04/15 01:34:07;;;;;;;0.00;0.00;;;;;;;;;;1733271;28;20208;-74
2023/04/15 01:34:58;;;;;;;0.10;0.10;;;;;;;;;;1732760;28;20738;-74
2023/04/15 01:35:50;;;;;;;0.00;0.00;;;;;;;;;;1732516;28;20258;-74
2023/04/15 01:36:41;;;;;;;0.00;0.00;;;;;;;;;;1728371;28;20227;-74
2023/04/15 01:37:33;;;;;;;0.00;0.00;;;;;;;;;;1733517;28;20597;-74
2023/04/15 01:38:25;;;;;;;0.00;0.00;;;;;;;;;;1733487;28;20212;-75
2023/04/15 01:39:18;;;;;;;0.00;0.00;;;;;;;;;;1737855;28;20671;-74
2023/04/15 01:40:09;;;;;;;0.00;0.00;;;;;;;;;;1734116;28;20212;-75
2023/04/15 01:41:03;;;;;;;0.00;0.00;;;;;;;;;;1731632;28;20678;-74
2023/04/15 01:41:54;;;;;;;0.00;0.00;;;;;;;;;;1732345;28;20291;-74
2023/04/15 01:42:46;;;;;;;0.00;0.00;;;;;;;;;;1733208;28;20211;-74
2023/04/15 01:43:37;;;;;;;0.00;0.00;;;;;;;;;;1733133;28;20212;-74
2023/04/15 01:44:29;;;;;;;0.00;0.00;;;;;;;;;;1734974;28;20938;-74
2023/04/15 01:45:20;;;;;;;0.00;0.00;;;;;;;;;;1732015;28;20215;-74
2023/04/15 01:46:12;;;;;;;0.00;0.00;;;;;;;;;;1733071;28;20763;-75
2023/04/15 01:47:04;;;;;;;0.00;0.00;;;;;;;;;;1731302;28;20224;-75
2023/04/15 01:47:56;;;;;;;0.00;0.00;;;;;;;;;;1733133;28;20204;-75
2023/04/15 01:48:47;;;;;;;0.00;0.00;;;;;;;;;;1733103;28;20254;-75
2023/04/15 01:49:39;;;;;;;0.10;0.10;;;;;;;;;;1733093;28;20201;-74
2023/04/15 01:50:31;;;;;;;0.00;0.00;;;;;;;;;;1733403;28;20301;-75
2023/04/15 01:51:23;;;;;;;0.00;0.00;;;;;;;;;;1735181;28;20212;-75
2023/04/15 01:52:14;;;;;;;0.00;0.00;;;;;;;;;;1733081;28;20212;-75
2023/04/15 01:53:06;;;;;;;0.00;0.00;;;;;;;;;;1732223;28;20665;-75
2023/04/15 01:53:57;;;;;;;0.00;0.00;;;;;;;;;;1735162;28;20259;-74
2023/04/15 01:54:49;;;;;;;0.00;0.00;;;;;;;;;;1734857;28;20212;-74
2023/04/15 01:55:40;;;;;;;0.00;0.00;;;;;;;;;;1732299;28;20247;-74
2023/04/15 01:56:34;;;;;;;0.00;0.00;;;;;;;;;;1733708;28;20701;-74
2023/04/15 01:57:25;;;;;;;0.00;0.00;;;;;;;;;;1733273;28;20243;-74
2023/04/15 01:58:16;;;;;;;0.00;0.00;;;;;;;;;;1733811;28;20616;-74
2023/04/15 01:59:08;;;;;;;0.00;0.00;;;;;;;;;;1733074;28;20511;-73
2023/04/15 01:59:59;;;;;;;0.00;0.00;;;;;;;;;;1733259;28;20291;-74
2023/04/15 02:00:51;;;;;;;0.00;0.00;;;;;;;;;;1732111;28;20244;-74
2023/04/15 02:01:44;;;;;;;0.00;0.00;;;;;;;;;;1731908;28;20204;-74
2023/04/15 02:02:35;;;;;;;0.00;0.00;;;;;;;;;;1733328;28;20204;-75
2023/04/15 02:03:28;;;;;;;0.00;0.00;;;;;;;;;;1732236;28;20285;-74
2023/04/15 02:04:20;;;;;;;0.00;0.00;;;;;;;;;;1736537;28;20294;-74
2023/04/15 02:05:11;;;;;;;0.00;0.00;;;;;;;;;;1733562;28;20223;-75
2023/04/15 02:06:05;;;;;;;0.10;0.10;;;;;;;;;;1733143;28;20263;-74
2023/04/15 02:06:56;;;;;;;0.00;0.00;;;;;;;;;;1732304;28;20215;-74
2023/04/15 02:07:48;;;;;;;0.00;0.00;;;;;;;;;;1732097;28;20889;-74
2023/04/15 02:08:39;;;;;;;0.00;0.00;;;;;;;;;;1732276;28;20208;-74
2023/04/15 02:09:31;;;;;;;0.03;0.03;;;;;;;;;;1738227;28;20215;-74
2023/04/15 02:10:22;;;;;;;0.00;0.00;;;;;;;;;;1732826;28;20257;-73
2023/04/15 02:11:14;;;;;;;0.00;0.00;;;;;;;;;;1735641;28;20239;-74
2023/04/15 02:12:07;;;;;;;0.00;0.00;;;;;;;;;;1731657;28;20334;-73
2023/04/15 02:12:58;;;;;;;0.00;0.00;;;;;;;;;;1731277;28;20216;-73
2023/04/15 02:13:51;;;;;;;0.00;0.00;;;;;;;;;;1729991;28;20200;-73
2023/04/15 02:14:42;;;;;;;0.00;0.00;;;;;;;;;;1733168;28;20989;-73
2023/04/15 02:15:34;;;;;;;0.00;0.00;;;;;;;;;;1733876;28;20236;-74
2023/04/15 02:16:25;;;;;;;0.00;0.00;;;;;;;;;;1742359;28;20245;-74
2023/04/15 02:17:16;;;;;;;0.00;0.00;;;;;;;;;;1744020;28;20214;-73
2023/04/15 02:18:08;;;;;;;0.00;0.00;;;;;;;;;;1740460;28;20635;-74
2023/04/15 02:18:59;;;;;;;0.03;0.03;;;;;;;;;;1740088;28;20207;-74
2023/04/15 02:19:51;;;;;;;0.00;0.00;;;;;;;;;;1741041;28;20688;-74
2023/04/15 02:20:42;;;;;;;0.00;0.00;;;;;;;;;;1737940;28;20292;-74
2023/04/15 02:21:35;;;;;;;0.00;0.00;;;;;;;;;;1740634;28;20222;-74
2023/04/15 02:22:26;;;;;;;0.00;0.00;;;;;;;;;;1739235;28;20840;-74
2023/04/15 02:23:18;;;;;;;0.00;0.00;;;;;;;;;;1740426;28;20257;-73
2023/04/15 02:24:11;;;;;;;0.00;0.00;;;;;;;;;;1746272;28;20321;-73
2023/04/15 02:25:07;;;;;;;0.00;0.00;;;;;;;;;;1741904;28;20211;-73
2023/04/15 02:25:58;;;;;;;0.00;0.00;;;;;;;;;;1742075;28;20280;-74
2023/04/15 02:26:50;;;;;;;0.00;0.00;;;;;;;;;;1740701;28;20222;-74
2023/04/15 02:27:43;;;;;;;0.00;0.00;;;;;;;;;;1740279;28;20646;-74
2023/04/15 02:28:35;;;;;;;0.00;0.00;;;;;;;;;;1743953;28;20214;-74
2023/04/15 02:29:26;;;;;;;0.00;0.00;;;;;;;;;;1740210;28;20253;-74
2023/04/15 02:30:18;;;;;;;0.05;0.05;;;;;;;;;;1740638;28;20271;-74
2023/04/15 02:31:09;;;;;;;0.00;0.00;;;;;;;;;;1740029;28;20208;-74
2023/04/15 02:32:01;;;;;;;0.00;0.00;;;;;;;;;;1741072;28;20302;-74
2023/04/15 02:32:52;;;;;;;0.00;0.00;;;;;;;;;;1744407;28;20309;-74
2023/04/15 02:33:44;;;;;;;0.00;0.00;;;;;;;;;;1744996;28;20218;-74
2023/04/15 02:34:38;;;;;;;0.00;0.00;;;;;;;;;;1739410;28;20203;-74
2023/04/15 02:35:30;;;;;;;0.00;0.00;;;;;;;;;;1739426;28;20555;-75
2023/04/15 02:36:22;;;;;;;0.00;0.00;;;;;;;;;;1743246;28;20751;-74
2023/04/15 02:37:14;;;;;;;0.00;0.00;;;;;;;;;;1745119;28;20213;-74
2023/04/15 02:38:06;;;;;;;0.00;0.00;;;;;;;;;;1741912;28;20346;-74
2023/04/15 02:38:58;;;;;;;0.00;0.00;;;;;;;;;;1744372;28;20289;-75
2023/04/15 02:39:49;;;;;;;0.00;0.00;;;;;;;;;;1742394;28;20215;-75
2023/04/15 02:40:41;;;;;;;0.00;0.00;;;;;;;;;;1742094;28;20235;-74
2023/04/15 02:41:32;;;;;;;0.00;0.00;;;;;;;;;;1740965;28;20234;-74
2023/04/15 02:42:27;;;;;;;0.10;0.10;;;;;;;;;;1739953;28;20207;-74
2023/04/15 02:43:19;;;;;;;0.00;0.00;;;;;;;;;;1742828;28;20215;-74
2023/04/15 02:44:12;;;;;;;0.00;0.00;;;;;;;;;;1740064;28;20656;-75
2023/04/15 02:45:03;;;;;;;0.00;0.00;;;;;;;;;;1738717;28;20649;-75
2023/04/15 02:45:55;;;;;;;0.00;0.00;;;;;;;;;;1732755;28;20298;-74
2023/04/15 02:46:49;;;;;;;0.00;0.00;;;;;;;;;;1740290;28;20215;-74
2023/04/15 02:47:42;;;;;;;0.00;0.00;;;;;;;;;;1745262;28;20207;-74
2023/04/15 02:48:33;;;;;;;0.00;0.00;;;;;;;;;;1743066;28;20212;-74
2023/04/15 02:49:25;;;;;;;0.00;0.00;;;;;;;;;;1743367;28;20222;-74
2023/04/15 02:50:16;;;;;;;0.00;0.00;;;;;;;;;;1737246;28;20268;-74
2023/04/15 02:51:15;;;;;;;0.00;0.00;;;;;;;;;;1741621;28;20590;-74
2023/04/15 02:52:06;;;;;;;0.00;0.00;;;;;;;;;;1743610;28;20218;-74
2023/04/15 02:53:00;;;;;;;0.00;0.00;;;;;;;;;;1740041;28;20297;-74
2023/04/15 02:53:51;;;;;;;0.00;0.00;;;;;;;;;;1744134;28;20227;-74
2023/04/15 02:54:43;;;;;;;0.00;0.00;;;;;;;;;;1743064;28;20672;-74
2023/04/15 02:55:34;;;;;;;0.00;0.00;;;;;;;;;;1739404;28;20388;-75
2023/04/15 02:56:26;;;;;;;0.00;0.00;;;;;;;;;;1744268;28;20307;-74
2023/04/15 02:57:17;;;;;;;0.05;0.05;;;;;;;;;;1744770;28;20210;-74
2023/04/15 02:58:09;;;;;;;0.00;0.00;;;;;;;;;;1741016;28;20215;-74
2023/04/15 02:59:02;;;;;;;0.00;0.00;;;;;;;;;;1742656;28;20298;-74
2023/04/15 02:59:53;;;;;;;0.00;0.00;;;;;;;;;;1741542;28;20221;-74
2023/04/15 03:00:45;;;;;;;0.00;0.00;;;;;;;;;;1737965;28;20243;-74
2023/04/15 03:01:36;;;;;;;0.00;0.00;;;;;;;;;;1739752;28;20211;-74
2023/04/15 03:02:28;;;;;;;0.00;0.00;;;;;;;;;;1742366;28;20607;-75
2023/04/15 03:03:19;;;;;;;0.03;0.03;;;;;;;;;;1739550;28;20241;-75
2023/04/15 03:04:10;;;;;;;0.00;0.00;;;;;;;;;;1744831;28;20207;-74
2023/04/15 03:05:04;;;;;;;0.00;0.00;;;;;;;;;;1738937;28;20206;-74
2023/04/15 03:05:55;;;;;;;0.00;0.00;;;;;;;;;;1741967;28;20242;-75
2023/04/15 03:06:47;;;;;;;0.00;0.00;;;;;;;;;;1743148;28;20645;-74
2023/04/15 03:07:39;;;;;;;0.00;0.00;;;;;;;;;;1742631;28;20219;-75
2023/04/15 03:08:31;;;;;;;0.00;0.00;;;;;;;;;;1745261;28;20221;-74
2023/04/15 03:09:22;;;;;;;0.00;0.00;;;;;;;;;;1741985;28;20266;-74
2023/04/15 03:10:14;;;;;;;0.00;0.00;;;;;;;;;;1738092;28;20260;-75
2023/04/15 03:11:06;;;;;;;0.00;0.00;;;;;;;;;;1740848;28;20203;-74
2023/04/15 03:11:58;;;;;;;0.00;0.00;;;;;;;;;;1740551;28;20541;-75
2023/04/15 03:12:49;;;;;;;0.00;0.00;;;;;;;;;;1738296;28;20575;-75
2023/04/15 03:13:42;;;;;;;0.00;0.00;;;;;;;;;;1739470;28;20672;-74
2023/04/15 03:14:34;;;;;;;0.00;0.00;;;;;;;;;;1740299;28;20221;-75
2023/04/15 03:15:26;;;;;;;0.00;0.00;;;;;;;;;;1739339;28;20212;-75
2023/04/15 03:16:17;;;;;;;0.00;0.00;;;;;;;;;;1740804;28;20211;-75
2023/04/15 03:17:09;;;;;;;0.00;0.00;;;;;;;;;;1739179;28;20621;-75
2023/04/15 03:18:00;;;;;;;0.00;0.00;;;;;;;;;;1738833;28;20269;-75
2023/04/15 03:18:52;;;;;;;0.00;0.00;;;;;;;;;;1743502;28;20214;-75
2023/04/15 03:19:43;;;;;;;0.10;0.10;;;;;;;;;;1739307;28;20219;-75
2023/04/15 03:20:36;;;;;;;0.10;0.10;;;;;;;;;;1737755;28;20326;-75
2023/04/15 03:21:27;;;;;;;0.00;0.00;;;;;;;;;;1738219;28;20262;-75
2023/04/15 03:22:19;;;;;;;0.00;0.00;;;;;;;;;;1738737;28;20211;-75
2023/04/15 03:23:10;;;;;;;0.00;0.00;;;;;;;;;;1739147;28;20257;-75
2023/04/15 03:24:02;;;;;;;0.00;0.00;;;;;;;;;;1738764;28;20199;-74
2023/04/15 03:24:53;;;;;;;0.00;0.00;;;;;;;;;;1738927;28;20207;-74
2023/04/15 03:25:45;;;;;;;0.00;0.00;;;;;;;;;;1740567;28;20227;-74
2023/04/15 03:26:36;;;;;;;0.00;0.00;;;;;;;;;;1739532;28;20223;-74
2023/04/15 03:27:28;;;;;;;0.10;0.10;;;;;;;;;;1738956;28;20740;-74
2023/04/15 03:28:19;;;;;;;0.00;0.00;;;;;;;;;;1739433;28;20256;-74
2023/04/15 03:29:11;;;;;;;0.00;0.00;;;;;;;;;;1740114;28;20204;-74
2023/04/15 03:30:08;;;;;;;0.10;0.10;;;;;;;;;;1738685;28;20249;-74
2023/04/15 03:31:00;;;;;;;0.00;0.00;;;;;;;;;;1737259;28;20385;-74
2023/04/15 03:31:52;;;;;;;0.00;0.00;;;;;;;;;;1737898;28;20211;-74
2023/04/15 03:32:44;;;;;;;0.10;0.10;;;;;;;;;;1739367;28;20294;-74
2023/04/15 03:33:35;;;;;;;0.00;0.00;;;;;;;;;;1741870;28;20720;-74
2023/04/15 03:34:27;;;;;;;0.00;0.00;;;;;;;;;;1739915;28;20591;-74
2023/04/15 03:35:18;;;;;;;0.00;0.00;;;;;;;;;;1738095;28;20299;-75
2023/04/15 03:36:10;;;;;;;0.10;0.10;;;;;;;;;;1738744;28;20207;-74
2023/04/15 03:37:02;;;;;;;0.10;0.10;;;;;;;;;;1739923;28;20207;-75
2023/04/15 03:37:53;;;;;;;0.00;0.00;;;;;;;;;;1738860;28;20276;-74
2023/04/15 03:38:45;;;;;;;0.00;0.00;;;;;;;;;;1739315;28;20239;-74
2023/04/15 03:39:36;;;;;;;0.08;0.08;;;;;;;;;;1741875;28;20207;-74
2023/04/15 03:40:28;;;;;;;0.00;0.00;;;;;;;;;;1737330;28;20296;-74
2023/04/15 03:41:19;;;;;;;0.00;0.00;;;;;;;;;;1740076;28;20304;-74
2023/04/15 03:42:11;;;;;;;0.00;0.00;;;;;;;;;;1737453;28;20207;-75
2023/04/15 03:43:02;;;;;;;0.00;0.00;;;;;;;;;;1737874;28;20665;-74
2023/04/15 03:43:54;;;;;;;0.00;0.00;;;;;;;;;;1740301;28;20502;-74
2023/04/15 03:44:45;;;;;;;0.10;0.10;;;;;;;;;;1737078;28;20914;-74
2023/04/15 03:45:38;;;;;;;0.00;0.00;;;;;;;;;;1737715;28;20895;-74
2023/04/15 03:46:30;;;;;;;0.00;0.00;;;;;;;;;;1740247;28;20215;-74
2023/04/15 03:47:22;;;;;;;0.00;0.00;;;;;;;;;;1739004;28;20768;-74
2023/04/15 03:48:13;;;;;;;0.00;0.00;;;;;;;;;;1739127;28;20211;-74
2023/04/15 03:49:05;;;;;;;0.00;0.00;;;;;;;;;;1743064;28;20269;-74
2023/04/15 03:49:56;;;;;;;0.00;0.00;;;;;;;;;;1739701;28;20702;-74
2023/04/15 03:50:48;;;;;;;0.00;0.00;;;;;;;;;;1736079;28;20640;-74
2023/04/15 03:51:40;;;;;;;0.00;0.00;;;;;;;;;;1739167;28;20272;-74
2023/04/15 03:52:32;;;;;;;0.00;0.00;;;;;;;;;;1738535;28;20223;-74
2023/04/15 03:53:23;;;;;;;0.10;0.10;;;;;;;;;;1738283;28;20249;-74
2023/04/15 03:54:15;;;;;;;0.00;0.00;;;;;;;;;;1738771;28;20636;-74
2023/04/15 03:55:07;;;;;;;0.00;0.00;;;;;;;;;;1739103;28;20212;-74
2023/04/15 03:55:59;;;;;;;0.00;0.00;;;;;;;;;;1736956;28;20322;-74
2023/04/15 03:56:50;;;;;;;0.00;0.00;;;;;;;;;;1738519;28;20252;-74
2023/04/15 03:57:42;;;;;;;0.00;0.00;;;;;;;;;;1739520;28;20207;-74
2023/04/15 03:58:33;;;;;;;0.00;0.00;;;;;;;;;;1738378;28;20216;-74
2023/04/15 03:59:24;;;;;;;0.00;0.00;;;;;;;;;;1738684;28;20216;-74
2023/04/15 04:00:16;;;;;;;0.00;0.00;;;;;;;;;;1739989;28;20647;-74
2023/04/15 04:01:08;;;;;;;0.00;0.00;;;;;;;;;;1739655;28;20211;-74
2023/04/15 04:02:00;;;;;;;0.00;0.00;;;;;;;;;;1739566;28;20213;-73
2023/04/15 04:02:51;;;;;;;0.00;0.00;;;;;;;;;;1738633;28;20269;-73
2023/04/15 04:03:43;;;;;;;0.00;0.00;;;;;;;;;;1739294;28;20215;-73
2023/04/15 04:04:34;;;;;;;0.00;0.00;;;;;;;;;;1743175;28;20227;-73
2023/04/15 04:05:26;;;;;;;0.10;0.10;;;;;;;;;;1737290;28;20207;-74
2023/04/15 04:06:17;;;;;;;0.00;0.00;;;;;;;;;;1738608;28;20208;-74
2023/04/15 04:07:09;;;;;;;0.00;0.00;;;;;;;;;;1738008;28;20211;-74
2023/04/15 04:08:00;;;;;;;0.00;0.00;;;;;;;;;;1738953;28;20284;-74
2023/04/15 04:08:52;;;;;;;0.10;0.10;;;;;;;;;;1739342;28;20207;-74
2023/04/15 04:09:43;;;;;;;0.00;0.00;;;;;;;;;;1738863;28;20621;-74
2023/04/15 04:10:35;;;;;;;0.00;0.00;;;;;;;;;;1737434;28;20271;-74
2023/04/15 04:11:27;;;;;;;0.00;0.00;;;;;;;;;;1739106;28;20974;-74
2023/04/15 04:12:19;;;;;;;0.00;0.00;;;;;;;;;;1738672;28;20213;-74
2023/04/15 04:13:10;;;;;;;0.00;0.00;;;;;;;;;;1737463;28;20375;-74
2023/04/15 04:14:02;;;;;;;0.00;0.00;;;;;;;;;;1738734;28;20203;-74
2023/04/15 04:14:53;;;;;;;0.00;0.00;;;;;;;;;;1739809;28;20211;-74
2023/04/15 04:15:45;;;;;;;0.00;0.00;;;;;;;;;;1737389;28;20235;-74
2023/04/15 04:16:37;;;;;;;0.00;0.00;;;;;;;;;;1733825;28;20215;-74
2023/04/15 04:17:29;;;;;;;0.00;0.00;;;;;;;;;;1733041;28;20231;-74
2023/04/15 04:18:20;;;;;;;0.00;0.00;;;;;;;;;;1735924;28;20215;-74
2023/04/15 04:19:13;;;;;;;0.00;0.00;;;;;;;;;;1736296;28;20215;-74
2023/04/15 04:20:05;;;;;;;0.05;0.05;;;;;;;;;;1734971;28;20718;-74
2023/04/15 04:20:57;;;;;;;0.00;0.00;;;;;;;;;;1732478;28;20235;-74
2023/04/15 04:21:48;;;;;;;0.00;0.00;;;;;;;;;;1733094;28;20232;-74
2023/04/15 04:22:40;;;;;;;0.00;0.00;;;;;;;;;;1738937;28;20242;-74
2023/04/15 04:23:32;;;;;;;0.10;0.10;;;;;;;;;;1736032;28;20601;-75
2023/04/15 04:24:24;;;;;;;0.00;0.00;;;;;;;;;;1734273;28;20678;-74
2023/04/15 04:25:15;;;;;;;0.00;0.00;;;;;;;;;;1732991;28;20216;-76
2023/04/15 04:26:07;;;;;;;0.10;0.10;;;;;;;;;;1732393;28;20212;-75
2023/04/15 04:26:58;;;;;;;0.00;0.00;;;;;;;;;;1732800;28;20589;-75
2023/04/15 04:27:50;;;;;;;0.00;0.00;;;;;;;;;;1733439;28;20198;-75
2023/04/15 04:28:41;;;;;;;0.00;0.00;;;;;;;;;;1737289;28;20233;-75
2023/04/15 04:29:33;;;;;;;0.00;0.00;;;;;;;;;;1737020;28;20223;-75
2023/04/15 04:30:24;;;;;;;0.00;0.00;;;;;;;;;;1733004;28;20212;-75
2023/04/15 04:31:16;;;;;;;0.00;0.00;;;;;;;;;;1732907;28;20218;-75
2023/04/15 04:32:09;;;;;;;0.05;0.05;;;;;;;;;;1734310;28;20208;-75
2023/04/15 04:33:01;;;;;;;0.00;0.00;;;;;;;;;;1736715;28;20242;-75
2023/04/15 04:33:52;;;;;;;0.00;0.00;;;;;;;;;;1735721;28;20701;-75
2023/04/15 04:34:44;;;;;;;0.10;0.10;;;;;;;;;;1733155;28;20731;-75
2023/04/15 04:35:36;;;;;;;0.00;0.00;;;;;;;;;;1733361;28;20322;-74
2023/04/15 04:36:28;;;;;;;0.00;0.00;;;;;;;;;;1733316;28;20226;-74
2023/04/15 04:37:19;;;;;;;0.00;0.00;;;;;;;;;;1737693;28;20211;-74
2023/04/15 04:38:11;;;;;;;0.00;0.00;;;;;;;;;;1736451;28;20222;-74
2023/04/15 04:39:02;;;;;;;0.00;0.00;;;;;;;;;;1736060;28;20207;-74
2023/04/15 04:39:55;;;;;;;0.00;0.00;;;;;;;;;;1737413;28;20980;-74
2023/04/15 04:40:46;;;;;;;0.10;0.10;;;;;;;;;;1738394;28;20347;-75
2023/04/15 04:41:38;;;;;;;0.00;0.00;;;;;;;;;;1737037;28;20703;-74
2023/04/15 04:42:29;;;;;;;0.00;0.00;;;;;;;;;;1734881;28;20284;-75
2023/04/15 04:43:21;;;;;;;0.00;0.00;;;;;;;;;;1735398;28;20265;-74
2023/04/15 04:44:12;;;;;;;0.00;0.00;;;;;;;;;;1740073;28;20246;-75
2023/04/15 04:45:04;;;;;;;0.10;0.10;;;;;;;;;;1738091;28;20211;-74
2023/04/15 04:45:55;;;;;;;0.00;0.00;;;;;;;;;;1732611;28;20251;-74
2023/04/15 04:46:47;;;;;;;0.00;0.00;;;;;;;;;;1735574;28;20517;-74
2023/04/15 04:47:39;;;;;;;0.00;0.00;;;;;;;;;;1731428;28;20212;-74
2023/04/15 04:48:31;;;;;;;0.10;0.10;;;;;;;;;;1736906;28;20211;-74
2023/04/15 04:49:22;;;;;;;0.00;0.00;;;;;;;;;;1733136;28;20655;-74
2023/04/15 04:50:14;;;;;;;0.00;0.00;;;;;;;;;;1735654;28;20272;-74
2023/04/15 04:51:06;;;;;;;0.10;0.10;;;;;;;;;;1737142;28;22324;-74
2023/04/15 04:51:58;;;;;;;0.00;0.00;;;;;;;;;;1736418;28;20200;-74
2023/04/15 04:52:50;;;;;;;0.00;0.00;;;;;;;;;;1738485;28;20219;-75
2023/04/15 04:53:42;;;;;;;0.00;0.00;;;;;;;;;;1736758;28;20248;-73
2023/04/15 04:54:33;;;;;;;0.00;0.00;;;;;;;;;;1735272;28;20342;-73
2023/04/15 04:55:26;;;;;;;0.00;0.00;;;;;;;;;;1735955;28;20885;-73
2023/04/15 04:56:17;;;;;;;0.00;0.00;;;;;;;;;;1738682;28;20208;-73
2023/04/15 04:57:09;;;;;;;0.08;0.08;;;;;;;;;;1735951;28;20545;-73
2023/04/15 04:58:00;;;;;;;0.00;0.00;;;;;;;;;;1736727;28;20235;-73
2023/04/15 04:58:52;;;;;;;0.00;0.00;;;;;;;;;;1736630;28;20207;-73
2023/04/15 04:59:43;;;;;;;0.05;0.05;;;;;;;;;;1735805;28;20882;-73
2023/04/15 05:00:36;;;;;;;0.00;0.00;;;;;;;;;;1737028;28;20367;-74
2023/04/15 05:01:27;;;;;;;0.00;0.00;;;;;;;;;;1732961;28;20277;-74
2023/04/15 05:02:20;;;;;;;0.10;0.10;;;;;;;;;;1736886;28;20799;-74
2023/04/15 05:03:12;;;;;;;0.00;0.00;;;;;;;;;;1733982;28;20606;-73
2023/04/15 05:04:05;;;;;;;0.00;0.00;;;;;;;;;;1732911;28;20283;-73
2023/04/15 05:04:56;;;;;;;0.00;0.00;;;;;;;;;;1735312;28;20262;-73
2023/04/15 05:05:49;;;;;;;0.00;0.00;;;;;;;;;;1734057;28;20235;-73
2023/04/15 05:06:40;;;;;;;0.00;0.00;;;;;;;;;;1737273;28;20207;-73
2023/04/15 05:07:32;;;;;;;0.00;0.00;;;;;;;;;;1735338;28;20215;-73
2023/04/15 05:08:23;;;;;;;0.05;0.05;;;;;;;;;;1737979;28;20629;-74
2023/04/15 05:09:15;;;;;;;0.10;0.10;;;;;;;;;;1732624;28;20328;-74
2023/04/15 05:10:06;;;;;;;0.00;0.00;;;;;;;;;;1729656;28;20267;-74
2023/04/15 05:10:58;;;;;;;0.00;0.00;;;;;;;;;;1737007;28;20235;-74